sensor_id;sensor_type;location;lat;lon;timestamp;pressure;altitude;pressure_sealevel;temperature;humidity
6194;BME280;3130;41.564;23.280;2023-08-07T00:01:26;98040.97;;;21.49;69.43
6194;BME280;3130;41.564;23.280;2023-08-07T00:03:53;98078.53;;;21.63;69.86
6194;BME280;3130;41.564;23.280;2023-08-07T00:06:20;98050.25;;;21.37;69.46
6194;BME280;3130;41.564;23.280;2023-08-07T00:08:47;98068.41;;;21.45;70.35
6194;BME280;3130;41.564;23.280;2023-08-07T00:11:14;97907.84;;;20.56;69.87
6194;BME280;3130;41.564;23.280;2023-08-07T00:13:41;98081.28;;;21.47;70.27
6194;BME280;3130;41.564;23.280;2023-08-07T00:16:08;97945.59;;;20.60;70.26
6194;BME280;3130;41.564;23.280;2023-08-07T00:18:37;97935.44;;;20.51;70.24
6194;BME280;3130;41.564;23.280;2023-08-07T00:21:05;97968.47;;;20.87;69.93
6194;BME280;3130;41.564;23.280;2023-08-07T00:23:32;98091.44;;;21.56;69.81
6194;BME280;3130;41.564;23.280;2023-08-07T00:25:59;98083.34;;;21.51;69.81
6194;BME280;3130;41.564;23.280;2023-08-07T00:28:26;97904.88;;;20.45;69.57
6194;BME280;3130;41.564;23.280;2023-08-07T00:30:55;98054.28;;;21.40;70.01
6194;BME280;3130;41.564;23.280;2023-08-07T00:33:22;98081.56;;;21.52;69.88
6194;BME280;3130;41.564;23.280;2023-08-07T00:35:51;97930.56;;;20.48;70.26
6194;BME280;3130;41.564;23.280;2023-08-07T00:38:18;97949.19;;;20.59;70.38
6194;BME280;3130;41.564;23.280;2023-08-07T00:40:45;97922.06;;;20.17;70.97
6194;BME280;3130;41.564;23.280;2023-08-07T00:43:12;97968.59;;;20.34;71.21
6194;BME280;3130;41.564;23.280;2023-08-07T00:45:42;98103.22;;;21.01;72.16
6194;BME280;3130;41.564;23.280;2023-08-07T00:48:11;98085.13;;;20.85;72.88
6194;BME280;3130;41.564;23.280;2023-08-07T00:50:39;98030.25;;;20.42;73.66
6194;BME280;3130;41.564;23.280;2023-08-07T00:53:08;97966.53;;;19.85;73.71
6194;BME280;3130;41.564;23.280;2023-08-07T00:55:36;97982.34;;;19.76;74.49
6194;BME280;3130;41.564;23.280;2023-08-07T00:58:03;98083.44;;;20.47;74.32
6194;BME280;3130;41.564;23.280;2023-08-07T01:00:30;97972.97;;;19.67;74.37
6194;BME280;3130;41.564;23.280;2023-08-07T01:02:59;98105.50;;;20.59;74.03
6194;BME280;3130;41.564;23.280;2023-08-07T01:05:26;98005.31;;;19.95;74.31
6194;BME280;3130;41.564;23.280;2023-08-07T01:07:53;98107.50;;;20.49;74.13
6194;BME280;3130;41.564;23.280;2023-08-07T01:10:34;98029.94;;;20.15;73.34
6194;BME280;3130;41.564;23.280;2023-08-07T01:13:07;97918.97;;;19.38;73.62
6194;BME280;3130;41.564;23.280;2023-08-07T01:15:37;98030.72;;;19.93;73.86
6194;BME280;3130;41.564;23.280;2023-08-07T01:18:06;98068.84;;;20.16;74.08
6194;BME280;3130;41.564;23.280;2023-08-07T01:20:34;97994.31;;;19.54;74.59
6194;BME280;3130;41.564;23.280;2023-08-07T01:23:03;97921.56;;;19.00;75.01
6194;BME280;3130;41.564;23.280;2023-08-07T01:25:30;98082.28;;;19.89;75.67
6194;BME280;3130;41.564;23.280;2023-08-07T01:28:02;97977.69;;;19.25;75.43
6194;BME280;3130;41.564;23.280;2023-08-07T01:30:35;98063.50;;;19.71;75.56
6194;BME280;3130;41.564;23.280;2023-08-07T01:33:09;97992.19;;;19.20;75.39
6194;BME280;3130;41.564;23.280;2023-08-07T01:35:41;98107.34;;;19.98;74.76
6194;BME280;3130;41.564;23.280;2023-08-07T01:38:12;98113.50;;;19.89;74.98
6194;BME280;3130;41.564;23.280;2023-08-07T01:40:40;98120.34;;;19.90;74.83
6194;BME280;3130;41.564;23.280;2023-08-07T01:43:08;97947.94;;;18.81;74.64
6194;BME280;3130;41.564;23.280;2023-08-07T01:45:36;98113.56;;;19.81;74.92
6194;BME280;3130;41.564;23.280;2023-08-07T01:48:03;98126.19;;;19.92;74.76
6194;BME280;3130;41.564;23.280;2023-08-07T01:50:30;98112.25;;;19.77;75.11
6194;BME280;3130;41.564;23.280;2023-08-07T01:52:58;98063.22;;;19.58;74.76
6194;BME280;3130;41.564;23.280;2023-08-07T01:55:27;98127.16;;;19.91;74.66
6194;BME280;3130;41.564;23.280;2023-08-07T01:57:54;98125.28;;;19.77;74.48
6194;BME280;3130;41.564;23.280;2023-08-07T02:00:21;98131.78;;;19.73;74.29
6194;BME280;3130;41.564;23.280;2023-08-07T02:02:49;98140.75;;;19.71;74.45
6194;BME280;3130;41.564;23.280;2023-08-07T02:05:16;98137.69;;;19.67;74.11
6194;BME280;3130;41.564;23.280;2023-08-07T02:07:44;98117.72;;;19.52;74.04
6194;BME280;3130;41.564;23.280;2023-08-07T02:10:12;98141.25;;;19.66;73.87
6194;BME280;3130;41.564;23.280;2023-08-07T02:12:40;98143.69;;;19.68;73.83
6194;BME280;3130;41.564;23.280;2023-08-07T02:15:08;98087.00;;;19.47;74.19
6194;BME280;3130;41.564;23.280;2023-08-07T02:17:35;98131.72;;;19.89;75.00
6194;BME280;3130;41.564;23.280;2023-08-07T02:20:05;98138.63;;;20.21;74.29
6194;BME280;3130;41.564;23.280;2023-08-07T02:22:32;98131.25;;;20.32;73.91
6194;BME280;3130;41.564;23.280;2023-08-07T02:24:59;98140.13;;;20.45;73.39
6194;BME280;3130;41.564;23.280;2023-08-07T02:27:26;98130.06;;;20.65;72.88
6194;BME280;3130;41.564;23.280;2023-08-07T02:29:54;98160.34;;;21.11;71.15
6194;BME280;3130;41.564;23.280;2023-08-07T02:32:21;98162.72;;;21.20;70.67
6194;BME280;3130;41.564;23.280;2023-08-07T02:34:48;98115.81;;;20.75;70.93
6194;BME280;3130;41.564;23.280;2023-08-07T02:37:15;98162.72;;;21.20;70.83
6194;BME280;3130;41.564;23.280;2023-08-07T02:39:42;98155.25;;;21.17;70.61
6194;BME280;3130;41.564;23.280;2023-08-07T02:42:10;98159.03;;;21.15;70.75
6194;BME280;3130;41.564;23.280;2023-08-07T02:44:37;98164.41;;;20.91;71.77
6194;BME280;3130;41.564;23.280;2023-08-07T02:47:05;98106.19;;;20.53;72.14
6194;BME280;3130;41.564;23.280;2023-08-07T02:49:32;98029.91;;;20.00;72.25
6194;BME280;3130;41.564;23.280;2023-08-07T02:52:00;98180.34;;;20.96;71.31
6194;BME280;3130;41.564;23.280;2023-08-07T02:54:27;98185.16;;;20.84;70.94
6194;BME280;3130;41.564;23.280;2023-08-07T02:56:54;98193.16;;;20.75;70.24
6194;BME280;3130;41.564;23.280;2023-08-07T02:59:21;98123.09;;;20.35;70.34
6194;BME280;3130;41.564;23.280;2023-08-07T03:01:49;98197.84;;;20.57;71.89
6194;BME280;3130;41.564;23.280;2023-08-07T03:04:18;98198.25;;;20.68;72.17
6194;BME280;3130;41.564;23.280;2023-08-07T03:06:45;98198.25;;;20.68;72.66
6194;BME280;3130;41.564;23.280;2023-08-07T03:09:12;98186.94;;;20.61;72.88
6194;BME280;3130;41.564;23.280;2023-08-07T03:11:39;98200.53;;;20.71;72.98
6194;BME280;3130;41.564;23.280;2023-08-07T03:14:06;98084.22;;;19.95;70.76
6194;BME280;3130;41.564;23.280;2023-08-07T03:16:33;98040.72;;;19.35;69.83
6194;BME280;3130;41.564;23.280;2023-08-07T03:19:00;98199.72;;;20.02;69.91
6194;BME280;3130;41.564;23.280;2023-08-07T03:21:29;98195.66;;;19.84;69.65
6194;BME280;3130;41.564;23.280;2023-08-07T03:23:56;98201.09;;;19.58;69.08
6194;BME280;3130;41.564;23.280;2023-08-07T03:26:23;98160.31;;;19.03;68.88
6194;BME280;3130;41.564;23.280;2023-08-07T03:28:50;98189.06;;;19.10;69.03
6194;BME280;3130;41.564;23.280;2023-08-07T03:31:17;98208.06;;;19.02;69.21
6194;BME280;3130;41.564;23.280;2023-08-07T03:33:44;98213.09;;;18.96;69.37
6194;BME280;3130;41.564;23.280;2023-08-07T03:36:11;98209.16;;;18.84;69.35
6194;BME280;3130;41.564;23.280;2023-08-07T03:38:39;98222.81;;;18.78;69.16
6194;BME280;3130;41.564;23.280;2023-08-07T03:41:06;98226.34;;;18.69;69.15
6194;BME280;3130;41.564;23.280;2023-08-07T03:43:33;98199.69;;;18.51;68.84
6194;BME280;3130;41.564;23.280;2023-08-07T03:46:00;98220.38;;;18.68;68.88
6194;BME280;3130;41.564;23.280;2023-08-07T03:48:27;98224.06;;;18.66;68.06
6194;BME280;3130;41.564;23.280;2023-08-07T03:51:02;98196.94;;;18.52;68.31
6194;BME280;3130;41.564;23.280;2023-08-07T03:53:29;98232.16;;;18.63;68.91
6194;BME280;3130;41.564;23.280;2023-08-07T03:55:58;98200.84;;;18.56;69.17
6194;BME280;3130;41.564;23.280;2023-08-07T03:58:25;98211.25;;;18.64;69.32
6194;BME280;3130;41.564;23.280;2023-08-07T04:00:52;98239.50;;;18.75;69.21
6194;BME280;3130;41.564;23.280;2023-08-07T04:03:19;98229.13;;;18.67;70.26
6194;BME280;3130;41.564;23.280;2023-08-07T04:05:46;98210.09;;;18.67;70.37
6194;BME280;3130;41.564;23.280;2023-08-07T04:08:14;98216.63;;;18.71;71.10
6194;BME280;3130;41.564;23.280;2023-08-07T04:10:41;98232.25;;;18.87;72.47
6194;BME280;3130;41.564;23.280;2023-08-07T04:13:09;98080.91;;;17.96;74.03
6194;BME280;3130;41.564;23.280;2023-08-07T04:15:36;98232.09;;;18.96;74.46
6194;BME280;3130;41.564;23.280;2023-08-07T04:18:03;98232.78;;;19.14;74.75
6194;BME280;3130;41.564;23.280;2023-08-07T04:20:31;98232.47;;;19.33;76.40
6194;BME280;3130;41.564;23.280;2023-08-07T04:22:58;98233.63;;;19.46;76.79
6194;BME280;3130;41.564;23.280;2023-08-07T04:25:25;98233.75;;;19.69;76.35
6194;BME280;3130;41.564;23.280;2023-08-07T04:27:52;98188.91;;;19.59;76.16
6194;BME280;3130;41.564;23.280;2023-08-07T04:30:20;98232.94;;;20.00;75.89
6194;BME280;3130;41.564;23.280;2023-08-07T04:32:47;98235.28;;;20.18;75.43
6194;BME280;3130;41.564;23.280;2023-08-07T04:35:15;98137.69;;;19.67;74.74
6194;BME280;3130;41.564;23.280;2023-08-07T04:37:42;98226.31;;;20.28;74.48
6194;BME280;3130;41.564;23.280;2023-08-07T04:40:10;98249.16;;;20.48;74.24
6194;BME280;3130;41.564;23.280;2023-08-07T04:42:37;98247.78;;;20.68;73.68
6194;BME280;3130;41.564;23.280;2023-08-07T04:45:05;98242.22;;;20.79;73.17
6194;BME280;3130;41.564;23.280;2023-08-07T04:47:33;98224.63;;;20.73;72.67
6194;BME280;3130;41.564;23.280;2023-08-07T04:50:01;98248.69;;;20.83;72.57
6194;BME280;3130;41.564;23.280;2023-08-07T04:52:28;98206.91;;;20.69;72.82
6194;BME280;3130;41.564;23.280;2023-08-07T04:54:55;98189.13;;;20.72;72.08
6194;BME280;3130;41.564;23.280;2023-08-07T04:57:22;98246.69;;;21.16;71.53
6194;BME280;3130;41.564;23.280;2023-08-07T04:59:49;98256.56;;;21.28;71.13
6194;BME280;3130;41.564;23.280;2023-08-07T05:02:16;98247.56;;;21.31;70.64
6194;BME280;3130;41.564;23.280;2023-08-07T05:04:45;98250.47;;;21.35;69.90
6194;BME280;3130;41.564;23.280;2023-08-07T05:07:12;98247.72;;;21.51;69.73
6194;BME280;3130;41.564;23.280;2023-08-07T05:09:39;98151.69;;;20.96;68.97
6194;BME280;3130;41.564;23.280;2023-08-07T05:12:07;98245.34;;;21.64;69.28
6194;BME280;3130;41.564;23.280;2023-08-07T05:14:35;98244.13;;;21.75;68.55
6194;BME280;3130;41.564;23.280;2023-08-07T05:17:03;98242.59;;;21.80;67.96
6194;BME280;3130;41.564;23.280;2023-08-07T05:19:30;98239.72;;;21.90;67.35
6194;BME280;3130;41.564;23.280;2023-08-07T05:21:59;98241.28;;;21.99;66.71
6194;BME280;3130;41.564;23.280;2023-08-07T05:24:26;98225.97;;;21.96;66.52
6194;BME280;3130;41.564;23.280;2023-08-07T05:26:53;98250.13;;;22.12;66.18
6194;BME280;3130;41.564;23.280;2023-08-07T05:29:20;98169.97;;;21.84;65.61
6194;BME280;3130;41.564;23.280;2023-08-07T05:31:47;98240.22;;;22.37;65.55
6194;BME280;3130;41.564;23.280;2023-08-07T05:34:14;98248.16;;;22.43;64.59
6194;BME280;3130;41.564;23.280;2023-08-07T05:36:41;98238.97;;;22.47;63.96
6194;BME280;3130;41.564;23.280;2023-08-07T05:41:37;98255.38;;;22.76;62.27
6194;BME280;3130;41.564;23.280;2023-08-07T05:44:04;98168.47;;;22.25;61.39
6194;BME280;3130;41.564;23.280;2023-08-07T05:46:32;98263.28;;;22.97;61.17
6194;BME280;3130;41.564;23.280;2023-08-07T05:48:59;98273.09;;;23.10;60.17
6194;BME280;3130;41.564;23.280;2023-08-07T05:51:29;98269.91;;;23.14;60.48
6194;BME280;3130;41.564;23.280;2023-08-07T05:53:56;98215.63;;;23.02;59.45
6194;BME280;3130;41.564;23.280;2023-08-07T05:56:24;98212.13;;;23.09;59.03
6194;BME280;3130;41.564;23.280;2023-08-07T05:58:52;98186.63;;;22.97;59.25
6194;BME280;3130;41.564;23.280;2023-08-07T06:01:19;98174.53;;;23.10;58.14
6194;BME280;3130;41.564;23.280;2023-08-07T06:03:46;98258.88;;;23.60;56.96
6194;BME280;3130;41.564;23.280;2023-08-07T06:06:13;98190.69;;;23.20;55.48
6194;BME280;3130;41.564;23.280;2023-08-07T06:08:40;98270.41;;;23.87;55.05
6194;BME280;3130;41.564;23.280;2023-08-07T06:11:07;98271.97;;;24.09;54.58
6194;BME280;3130;41.564;23.280;2023-08-07T06:13:35;98280.41;;;24.32;54.39
6194;BME280;3130;41.564;23.280;2023-08-07T06:16:03;98279.72;;;24.51;52.32
6194;BME280;3130;41.564;23.280;2023-08-07T06:18:30;98281.16;;;24.59;51.30
6194;BME280;3130;41.564;23.280;2023-08-07T06:20:57;98268.91;;;24.66;49.97
6194;BME280;3130;41.564;23.280;2023-08-07T06:23:24;98284.72;;;24.92;49.76
6194;BME280;3130;41.564;23.280;2023-08-07T06:25:51;98254.44;;;24.77;48.54
6194;BME280;3130;41.564;23.280;2023-08-07T06:28:18;98283.97;;;25.11;48.29
6194;BME280;3130;41.564;23.280;2023-08-07T06:30:48;98277.16;;;25.23;47.72
6194;BME280;3130;41.564;23.280;2023-08-07T06:33:15;98235.91;;;25.04;47.05
6194;BME280;3130;41.564;23.280;2023-08-07T06:35:42;98285.50;;;25.46;46.14
6194;BME280;3130;41.564;23.280;2023-08-07T06:38:09;98228.53;;;25.34;45.95
6194;BME280;3130;41.564;23.280;2023-08-07T06:40:37;98283.69;;;25.72;45.81
6194;BME280;3130;41.564;23.280;2023-08-07T06:43:05;98296.28;;;25.96;44.87
6194;BME280;3130;41.564;23.280;2023-08-07T06:45:32;98248.16;;;25.83;44.58
6194;BME280;3130;41.564;23.280;2023-08-07T06:48:01;98286.53;;;26.10;43.29
6194;BME280;3130;41.564;23.280;2023-08-07T06:50:28;98300.47;;;26.23;43.45
6194;BME280;3130;41.564;23.280;2023-08-07T06:52:55;98283.06;;;26.42;42.79
6194;BME280;3130;41.564;23.280;2023-08-07T06:55:22;98292.31;;;26.63;42.58
6194;BME280;3130;41.564;23.280;2023-08-07T06:57:49;98280.56;;;26.66;41.94
6194;BME280;3130;41.564;23.280;2023-08-07T07:00:17;98258.78;;;26.46;42.01
6194;BME280;3130;41.564;23.280;2023-08-07T07:02:44;98251.66;;;26.60;41.80
6194;BME280;3130;41.564;23.280;2023-08-07T07:05:12;98232.91;;;26.43;41.02
6194;BME280;3130;41.564;23.280;2023-08-07T07:07:39;98285.09;;;26.96;41.31
6194;BME280;3130;41.564;23.280;2023-08-07T07:10:07;98281.22;;;27.05;41.10
6194;BME280;3130;41.564;23.280;2023-08-07T07:12:34;98274.41;;;27.29;40.45
6194;BME280;3130;41.564;23.280;2023-08-07T07:15:01;98280.47;;;27.60;39.13
6194;BME280;3130;41.564;23.280;2023-08-07T07:17:28;98279.25;;;27.87;39.15
6194;BME280;3130;41.564;23.280;2023-08-07T07:19:55;98268.78;;;27.80;38.34
6194;BME280;3130;41.564;23.280;2023-08-07T07:22:24;98283.69;;;27.68;38.53
6194;BME280;3130;41.564;23.280;2023-08-07T07:24:51;98292.03;;;27.90;38.44
6194;BME280;3130;41.564;23.280;2023-08-07T07:27:18;98296.53;;;28.07;38.41
6194;BME280;3130;41.564;23.280;2023-08-07T07:29:45;98290.50;;;28.25;37.33
6194;BME280;3130;41.564;23.280;2023-08-07T07:32:12;98277.06;;;28.33;36.58
6194;BME280;3130;41.564;23.280;2023-08-07T07:34:40;98284.66;;;28.41;36.48
6194;BME280;3130;41.564;23.280;2023-08-07T07:37:07;98269.94;;;28.33;35.89
6194;BME280;3130;41.564;23.280;2023-08-07T07:39:36;98275.00;;;28.53;35.77
6194;BME280;3130;41.564;23.280;2023-08-07T07:42:04;98251.84;;;28.37;35.04
6194;BME280;3130;41.564;23.280;2023-08-07T07:44:32;98273.81;;;28.67;34.96
6194;BME280;3130;41.564;23.280;2023-08-07T07:46:59;98282.09;;;28.88;34.39
6194;BME280;3130;41.564;23.280;2023-08-07T07:49:26;98243.19;;;28.48;34.55
6194;BME280;3130;41.564;23.280;2023-08-07T07:51:53;98265.97;;;28.78;34.03
6194;BME280;3130;41.564;23.280;2023-08-07T07:54:21;98157.66;;;28.37;33.63
6194;BME280;3130;41.564;23.280;2023-08-07T07:56:49;98261.00;;;29.47;33.63
6194;BME280;3130;41.564;23.280;2023-08-07T07:59:17;98259.88;;;29.88;33.09
6194;BME280;3130;41.564;23.280;2023-08-07T08:01:44;98252.81;;;30.12;31.58
6194;BME280;3130;41.564;23.280;2023-08-07T08:04:12;98228.53;;;29.92;32.35
6194;BME280;3130;41.564;23.280;2023-08-07T08:06:40;98242.00;;;30.76;30.90
6194;BME280;3130;41.564;23.280;2023-08-07T08:09:07;98238.72;;;30.96;30.26
6194;BME280;3130;41.564;23.280;2023-08-07T08:11:35;98236.66;;;30.48;31.04
6194;BME280;3130;41.564;23.280;2023-08-07T08:14:04;98216.31;;;30.25;30.98
6194;BME280;3130;41.564;23.280;2023-08-07T08:16:31;98246.44;;;30.24;31.73
6194;BME280;3130;41.564;23.280;2023-08-07T08:18:58;98241.38;;;30.57;31.51
6194;BME280;3130;41.564;23.280;2023-08-07T08:21:25;98179.69;;;30.34;33.45
6194;BME280;3130;41.564;23.280;2023-08-07T08:23:52;98211.91;;;30.42;31.11
6194;BME280;3130;41.564;23.280;2023-08-07T08:26:19;98236.44;;;30.38;31.23
6194;BME280;3130;41.564;23.280;2023-08-07T08:28:47;98218.00;;;30.43;31.27
6194;BME280;3130;41.564;23.280;2023-08-07T08:31:16;98215.59;;;30.41;31.03
6194;BME280;3130;41.564;23.280;2023-08-07T08:33:43;98216.84;;;30.50;30.20
6194;BME280;3130;41.564;23.280;2023-08-07T08:36:14;98214.28;;;30.67;29.98
6194;BME280;3130;41.564;23.280;2023-08-07T08:38:42;98217.59;;;31.01;30.37
6194;BME280;3130;41.564;23.280;2023-08-07T08:41:11;98220.31;;;31.18;29.82
6194;BME280;3130;41.564;23.280;2023-08-07T08:43:41;98213.44;;;31.33;29.53
6194;BME280;3130;41.564;23.280;2023-08-07T08:46:16;98140.41;;;31.09;30.46
6194;BME280;3130;41.564;23.280;2023-08-07T08:48:50;98210.59;;;31.56;29.73
6194;BME280;3130;41.564;23.280;2023-08-07T08:51:19;98174.63;;;31.44;29.49
6194;BME280;3130;41.564;23.280;2023-08-07T08:53:48;98195.63;;;31.62;29.36
6194;BME280;3130;41.564;23.280;2023-08-07T08:56:16;98201.09;;;31.72;28.41
6194;BME280;3130;41.564;23.280;2023-08-07T08:58:43;98187.81;;;31.72;28.19
6194;BME280;3130;41.564;23.280;2023-08-07T09:01:11;98111.78;;;31.44;28.22
6194;BME280;3130;41.564;23.280;2023-08-07T09:03:40;98099.50;;;31.55;27.59
6194;BME280;3130;41.564;23.280;2023-08-07T09:06:08;98170.16;;;32.15;28.02
6194;BME280;3130;41.564;23.280;2023-08-07T09:08:38;98188.44;;;32.33;27.34
6194;BME280;3130;41.564;23.280;2023-08-07T09:11:08;98116.69;;;31.90;27.17
6194;BME280;3130;41.564;23.280;2023-08-07T09:13:36;98189.72;;;32.30;27.05
6194;BME280;3130;41.564;23.280;2023-08-07T09:16:04;98191.00;;;32.28;26.68
6194;BME280;3130;41.564;23.280;2023-08-07T09:18:34;98187.56;;;32.27;26.89
6194;BME280;3130;41.564;23.280;2023-08-07T09:21:03;98191.56;;;32.30;26.74
6194;BME280;3130;41.564;23.280;2023-08-07T09:23:30;98173.91;;;32.40;26.03
6194;BME280;3130;41.564;23.280;2023-08-07T09:26:01;98132.13;;;32.31;25.59
6194;BME280;3130;41.564;23.280;2023-08-07T09:28:30;98171.75;;;32.59;25.50
6194;BME280;3130;41.564;23.280;2023-08-07T09:30:58;98191.03;;;32.71;25.07
6194;BME280;3130;41.564;23.280;2023-08-07T09:33:28;98183.41;;;32.79;25.46
6194;BME280;3130;41.564;23.280;2023-08-07T09:35:57;98159.53;;;32.15;25.29
6194;BME280;3130;41.564;23.280;2023-08-07T09:38:29;98108.53;;;32.13;25.64
6194;BME280;3130;41.564;23.280;2023-08-07T09:40:58;98169.25;;;32.52;25.86
6194;BME280;3130;41.564;23.280;2023-08-07T09:43:25;98162.19;;;32.58;25.71
6194;BME280;3130;41.564;23.280;2023-08-07T09:45:52;98106.13;;;32.33;25.46
6194;BME280;3130;41.564;23.280;2023-08-07T09:48:28;98167.19;;;32.76;24.23
6194;BME280;3130;41.564;23.280;2023-08-07T09:50:58;98169.38;;;32.84;24.40
6194;BME280;3130;41.564;23.280;2023-08-07T09:53:27;98170.13;;;32.79;24.34
6194;BME280;3130;41.564;23.280;2023-08-07T09:55:56;98128.91;;;32.50;23.99
6194;BME280;3130;41.564;23.280;2023-08-07T09:58:24;98065.31;;;32.17;23.30
6194;BME280;3130;41.564;23.280;2023-08-07T10:00:52;98152.47;;;32.68;24.12
6194;BME280;3130;41.564;23.280;2023-08-07T10:03:22;98160.47;;;32.09;25.03
6194;BME280;3130;41.564;23.280;2023-08-07T10:05:50;98139.13;;;31.99;25.69
6194;BME280;3130;41.564;23.280;2023-08-07T10:08:18;98110.22;;;32.02;26.11
6194;BME280;3130;41.564;23.280;2023-08-07T10:10:46;98155.19;;;32.52;25.81
6194;BME280;3130;41.564;23.280;2023-08-07T10:13:15;98117.72;;;32.48;25.86
6194;BME280;3130;41.564;23.280;2023-08-07T10:15:43;98156.34;;;32.82;25.53
6194;BME280;3130;41.564;23.280;2023-08-07T10:18:10;98068.75;;;32.39;25.41
6194;BME280;3130;41.564;23.280;2023-08-07T10:20:38;98159.00;;;33.08;25.18
6194;BME280;3130;41.564;23.280;2023-08-07T10:23:09;98151.59;;;32.84;25.14
6194;BME280;3130;41.564;23.280;2023-08-07T10:25:39;98139.72;;;32.65;25.15
6194;BME280;3130;41.564;23.280;2023-08-07T10:28:08;98143.34;;;32.86;24.82
6194;BME280;3130;41.564;23.280;2023-08-07T10:30:39;98143.09;;;32.87;25.14
6194;BME280;3130;41.564;23.280;2023-08-07T10:33:08;98145.56;;;32.94;25.05
6194;BME280;3130;41.564;23.280;2023-08-07T10:35:36;98144.25;;;32.96;26.34
6194;BME280;3130;41.564;23.280;2023-08-07T10:38:07;98142.16;;;32.98;26.17
6194;BME280;3130;41.564;23.280;2023-08-07T10:41:01;98127.31;;;33.02;26.07
6194;BME280;3130;41.564;23.280;2023-08-07T10:43:28;98139.66;;;32.87;25.54
6194;BME280;3130;41.564;23.280;2023-08-07T10:46:02;98135.75;;;32.68;24.72
6194;BME280;3130;41.564;23.280;2023-08-07T10:48:38;98081.22;;;31.96;23.70
6194;BME280;3130;41.564;23.280;2023-08-07T10:51:05;98053.47;;;31.82;23.96
6194;BME280;3130;41.564;23.280;2023-08-07T10:53:34;98114.66;;;32.35;25.39
6194;BME280;3130;41.564;23.280;2023-08-07T10:56:02;98107.81;;;32.44;24.87
6194;BME280;3130;41.564;23.280;2023-08-07T10:58:31;98118.09;;;32.14;24.48
6194;BME280;3130;41.564;23.280;2023-08-07T11:01:20;98050.06;;;31.87;25.00
6194;BME280;3130;41.564;23.280;2023-08-07T11:03:53;98111.28;;;32.44;26.06
6194;BME280;3130;41.564;23.280;2023-08-07T11:06:25;98117.09;;;32.63;25.14
6194;BME280;3130;41.564;23.280;2023-08-07T11:08:53;98104.50;;;32.80;25.27
6194;BME280;3130;41.564;23.280;2023-08-07T11:11:20;98061.66;;;32.71;24.01
6194;BME280;3130;41.564;23.280;2023-08-07T11:13:48;98049.06;;;32.62;24.67
6194;BME280;3130;41.564;23.280;2023-08-07T11:16:15;98108.38;;;32.94;24.50
6194;BME280;3130;41.564;23.280;2023-08-07T11:18:43;98078.53;;;32.87;25.06
6194;BME280;3130;41.564;23.280;2023-08-07T11:21:11;98073.34;;;33.01;25.34
6194;BME280;3130;41.564;23.280;2023-08-07T11:23:38;98099.81;;;33.18;24.32
6194;BME280;3130;41.564;23.280;2023-08-07T11:26:06;98034.06;;;32.77;24.94
6194;BME280;3130;41.564;23.280;2023-08-07T11:28:33;98037.78;;;32.76;23.52
6194;BME280;3130;41.564;23.280;2023-08-07T11:31:01;98085.84;;;33.06;23.22
6194;BME280;3130;41.564;23.280;2023-08-07T11:33:28;98096.63;;;33.16;25.06
6194;BME280;3130;41.564;23.280;2023-08-07T11:35:57;97995.03;;;32.51;24.93
6194;BME280;3130;41.564;23.280;2023-08-07T11:38:32;98035.34;;;32.70;25.35
6194;BME280;3130;41.564;23.280;2023-08-07T11:41:00;98096.97;;;32.98;26.38
6194;BME280;3130;41.564;23.280;2023-08-07T11:43:28;98100.91;;;32.91;26.23
6194;BME280;3130;41.564;23.280;2023-08-07T11:45:57;98083.03;;;32.86;27.24
6194;BME280;3130;41.564;23.280;2023-08-07T11:48:25;98079.84;;;32.84;26.32
6194;BME280;3130;41.564;23.280;2023-08-07T11:50:54;98086.84;;;32.95;27.37
6194;BME280;3130;41.564;23.280;2023-08-07T11:53:23;98074.88;;;32.97;27.08
6194;BME280;3130;41.564;23.280;2023-08-07T11:55:55;98087.72;;;33.05;27.94
6194;BME280;3130;41.564;23.280;2023-08-07T11:58:25;98074.06;;;33.23;26.96
6194;BME280;3130;41.564;23.280;2023-08-07T12:00:52;98071.91;;;33.20;26.51
6194;BME280;3130;41.564;23.280;2023-08-07T12:03:27;98066.31;;;33.22;25.75
6194;BME280;3130;41.564;23.280;2023-08-07T12:05:56;98061.22;;;33.15;25.93
6194;BME280;3130;41.564;23.280;2023-08-07T12:08:31;98069.84;;;33.32;25.99
6194;BME280;3130;41.564;23.280;2023-08-07T12:11:01;98068.47;;;33.20;25.27
6194;BME280;3130;41.564;23.280;2023-08-07T12:13:29;98056.00;;;33.25;25.40
6194;BME280;3130;41.564;23.280;2023-08-07T12:15:57;98062.09;;;33.26;25.21
6194;BME280;3130;41.564;23.280;2023-08-07T12:18:27;98045.59;;;33.19;25.80
6194;BME280;3130;41.564;23.280;2023-08-07T12:20:57;98026.09;;;33.08;25.46
6194;BME280;3130;41.564;23.280;2023-08-07T12:23:27;97999.75;;;33.07;25.40
6194;BME280;3130;41.564;23.280;2023-08-07T12:25:54;98043.81;;;33.29;25.21
6194;BME280;3130;41.564;23.280;2023-08-07T12:28:21;98010.13;;;33.08;25.18
6194;BME280;3130;41.564;23.280;2023-08-07T12:30:50;98027.06;;;33.39;25.45
6194;BME280;3130;41.564;23.280;2023-08-07T12:33:17;98029.19;;;33.32;25.54
6194;BME280;3130;41.564;23.280;2023-08-07T12:35:45;98036.47;;;33.51;25.40
6194;BME280;3130;41.564;23.280;2023-08-07T12:38:12;98021.56;;;33.45;25.16
6194;BME280;3130;41.564;23.280;2023-08-07T12:40:42;98044.94;;;33.48;24.78
6194;BME280;3130;41.564;23.280;2023-08-07T12:43:09;98043.31;;;33.37;25.41
6194;BME280;3130;41.564;23.280;2023-08-07T12:45:36;98034.22;;;33.33;25.59
6194;BME280;3130;41.564;23.280;2023-08-07T12:48:04;98045.47;;;33.40;25.84
6194;BME280;3130;41.564;23.280;2023-08-07T12:50:31;98040.69;;;33.47;24.96
6194;BME280;3130;41.564;23.280;2023-08-07T12:52:59;98035.16;;;33.54;25.64
6194;BME280;3130;41.564;23.280;2023-08-07T12:55:26;98028.22;;;33.48;24.89
6194;BME280;3130;41.564;23.280;2023-08-07T12:57:56;98002.63;;;33.37;24.79
6194;BME280;3130;41.564;23.280;2023-08-07T13:00:24;98031.94;;;33.47;24.92
6194;BME280;3130;41.564;23.280;2023-08-07T13:02:52;98031.09;;;33.41;25.14
6194;BME280;3130;41.564;23.280;2023-08-07T13:05:21;97998.69;;;33.03;25.01
6194;BME280;3130;41.564;23.280;2023-08-07T13:07:48;98029.97;;;33.27;25.31
6194;BME280;3130;41.564;23.280;2023-08-07T13:10:17;98009.13;;;33.14;25.04
6194;BME280;3130;41.564;23.280;2023-08-07T13:12:45;98024.59;;;33.22;25.09
6194;BME280;3130;41.564;23.280;2023-08-07T13:15:16;98015.94;;;33.37;25.01
6194;BME280;3130;41.564;23.280;2023-08-07T13:17:45;97990.09;;;33.27;25.20